createdAt,value
2022-08-06T00:00:03.472Z,18.32
2022-08-06T00:00:31.914Z,18.29
2022-08-06T00:01:31.194Z,18.27
2022-08-06T00:02:32.089Z,18.27
2022-08-06T00:03:31.733Z,18.29
2022-08-06T00:04:31.900Z,18.26
2022-08-06T00:05:35.232Z,18.27
2022-08-06T00:06:32.552Z,18.27
2022-08-06T00:07:44.879Z,18.26
2022-08-06T00:08:34.233Z,18.25
2022-08-06T00:09:52.023Z,18.23
2022-08-06T00:10:35.254Z,18.21
2022-08-06T00:11:34.288Z,18.18
2022-08-06T00:12:35.955Z,18.15
2022-08-06T00:13:34.757Z,18.14
2022-08-06T00:14:35.147Z,18.12
2022-08-06T00:16:06.107Z,18.12
2022-08-06T00:16:38.941Z,18.11
2022-08-06T00:17:36.067Z,18.12
2022-08-06T00:18:36.317Z,18.12
2022-08-06T00:19:58.148Z,18.14
2022-08-06T00:20:41.976Z,18.14
2022-08-06T00:21:40.792Z,18.12
2022-08-06T00:22:38.619Z,18.10
2022-08-06T00:23:52.636Z,18.10
2022-08-06T00:24:39.149Z,18.11
2022-08-06T00:25:44.900Z,18.12
2022-08-06T00:26:39.579Z,18.11
2022-08-06T00:27:39.941Z,18.10
2022-08-06T00:28:39.222Z,18.08
2022-08-06T00:29:44.166Z,18.05
2022-08-06T00:30:40.722Z,18.00
2022-08-06T00:31:40.563Z,17.99
2022-08-06T00:32:40.292Z,17.97
2022-08-06T00:33:50.007Z,17.99
2022-08-06T00:34:41.995Z,18.00
2022-08-06T00:35:41.209Z,18.00
2022-08-06T00:36:41.468Z,17.99
2022-08-06T00:37:54.799Z,17.97
2022-08-06T00:38:43.174Z,17.97
2022-08-06T00:39:42.433Z,17.97
2022-08-06T00:40:49.994Z,17.97
2022-08-06T00:41:46.399Z,17.97
2022-08-06T00:42:43.266Z,17.97
2022-08-06T00:43:43.628Z,17.96
2022-08-06T00:44:43.879Z,17.97
2022-08-06T00:45:45.886Z,17.96
2022-08-06T00:46:44.842Z,17.95
2022-08-06T00:48:02.823Z,17.93
2022-08-06T00:48:53.319Z,17.89
2022-08-06T00:49:48.516Z,17.86
2022-08-06T00:50:45.819Z,17.86
2022-08-06T00:51:51.140Z,17.86
2022-08-06T00:52:47.284Z,17.86
2022-08-06T00:53:48.265Z,17.84
2022-08-06T00:54:46.892Z,17.82
2022-08-06T00:55:59.298Z,17.81
2022-08-06T00:56:48.385Z,17.79
2022-08-06T00:57:47.653Z,17.78
2022-08-06T00:58:47.955Z,17.77
2022-08-06T00:59:48.237Z,17.77
2022-08-06T01:00:51.574Z,17.75
2022-08-06T01:01:49.961Z,17.74
2022-08-06T01:02:49.151Z,17.77
2022-08-06T01:03:51.307Z,17.75
2022-08-06T01:04:49.705Z,17.72
2022-08-06T01:06:06.638Z,17.71
2022-08-06T01:06:55.305Z,17.68
2022-08-06T01:07:52.775Z,17.70
2022-08-06T01:08:50.909Z,17.70
2022-08-06T01:09:57.809Z,17.68
2022-08-06T01:10:52.587Z,17.66
2022-08-06T01:11:52.282Z,17.66
2022-08-06T01:12:52.118Z,17.64
2022-08-06T01:14:03.935Z,17.63
2022-08-06T01:15:02.191Z,17.59
2022-08-06T01:16:08.991Z,17.58
2022-08-06T01:16:54.218Z,17.55
2022-08-06T01:17:56.186Z,17.55
2022-08-06T01:18:58.913Z,17.52
2022-08-06T01:21:56.646Z,17.48
2022-08-06T01:21:58.068Z,17.51
2022-08-06T01:22:29.547Z,17.46
2022-08-06T01:22:55.901Z,17.46
2022-08-06T01:23:55.283Z,17.46
2022-08-06T01:24:55.492Z,17.46
2022-08-06T01:25:55.811Z,17.44
2022-08-06T01:26:56.124Z,17.46
2022-08-06T01:27:56.626Z,17.46
2022-08-06T01:28:56.653Z,17.46
2022-08-06T01:29:56.914Z,17.48
2022-08-06T01:30:57.201Z,17.46
2022-08-06T01:31:57.434Z,17.48
2022-08-06T01:32:57.706Z,17.44
2022-08-06T01:33:58.054Z,17.43
2022-08-06T01:34:58.315Z,17.41
2022-08-06T01:35:58.626Z,17.40
2022-08-06T01:36:58.937Z,17.37
2022-08-06T01:37:59.353Z,17.36
2022-08-06T01:39:01.673Z,17.36
2022-08-06T01:40:02.842Z,17.33
2022-08-06T01:41:01.262Z,17.33
2022-08-06T01:42:00.279Z,17.33
2022-08-06T01:43:00.557Z,17.28
2022-08-06T01:44:07.391Z,17.26
2022-08-06T01:45:02.158Z,17.22
2022-08-06T01:46:01.489Z,17.22
2022-08-06T01:47:01.818Z,17.18
2022-08-06T01:48:02.702Z,17.16
2022-08-06T01:49:09.164Z,17.14
2022-08-06T01:50:04.179Z,17.15
2022-08-06T01:51:02.781Z,17.14
2022-08-06T01:52:14.738Z,17.12
2022-08-06T01:53:04.344Z,17.11
2022-08-06T01:54:06.648Z,17.11
2022-08-06T01:55:03.973Z,17.11
2022-08-06T01:56:08.871Z,17.07
2022-08-06T01:57:04.584Z,17.04
2022-08-06T01:58:18.930Z,17.01
2022-08-06T01:59:08.995Z,17.03
2022-08-06T02:00:05.285Z,17.01
2022-08-06T02:01:05.738Z,16.98
2022-08-06T02:02:05.961Z,16.98
2022-08-06T02:03:06.228Z,16.97
2022-08-06T02:04:06.526Z,16.97
2022-08-06T02:05:09.246Z,17.00
2022-08-06T02:06:07.037Z,17.01
2022-08-06T02:07:14.192Z,17.01
2022-08-06T02:08:37.036Z,17.01
2022-08-06T02:09:22.116Z,17.00
2022-08-06T02:10:09.852Z,17.00
2022-08-06T02:12:01.530Z,16.98
2022-08-06T02:12:10.692Z,16.97
2022-08-06T02:13:09.731Z,16.96
2022-08-06T02:14:09.953Z,16.94
2022-08-06T02:15:09.806Z,16.93
2022-08-06T02:16:09.912Z,16.93
2022-08-06T02:17:13.490Z,16.91
2022-08-06T02:18:10.506Z,16.91
2022-08-06T02:19:13.600Z,16.93
2022-08-06T02:20:19.018Z,16.93
2022-08-06T02:21:19.043Z,16.93
2022-08-06T02:22:12.672Z,16.88
2022-08-06T02:23:12.992Z,16.88
2022-08-06T02:24:12.274Z,16.86
2022-08-06T02:25:14.638Z,16.85
2022-08-06T02:26:14.795Z,16.85
2022-08-06T02:27:13.113Z,16.83
2022-08-06T02:28:21.619Z,16.85
2022-08-06T02:29:14.737Z,16.85
2022-08-06T02:30:14.097Z,16.83
2022-08-06T02:31:14.337Z,16.81
2022-08-06T02:32:16.002Z,16.79
2022-08-06T02:33:18.051Z,16.76
2022-08-06T02:34:15.175Z,16.76
2022-08-06T02:35:15.427Z,16.75
2022-08-06T02:36:26.854Z,16.75
2022-08-06T02:37:22.957Z,16.75
2022-08-06T02:38:17.327Z,16.73
2022-08-06T02:39:18.211Z,16.73
2022-08-06T02:40:18.359Z,16.70
2022-08-06T02:41:18.058Z,16.68
2022-08-06T02:42:17.690Z,16.70
2022-08-06T02:43:19.720Z,16.66
2022-08-06T02:44:18.050Z,16.64
2022-08-06T02:45:18.301Z,16.61
2022-08-06T02:46:18.651Z,16.60
2022-08-06T02:47:18.922Z,16.60
2022-08-06T02:48:22.194Z,16.57
2022-08-06T02:49:25.802Z,16.57
2022-08-06T02:50:20.677Z,16.57
2022-08-06T02:51:43.376Z,16.57
2022-08-06T02:52:32.919Z,16.56
2022-08-06T02:55:55.870Z,16.56
2022-08-06T02:56:55.920Z,16.53
2022-08-06T02:57:58.139Z,16.56
2022-08-06T02:58:57.960Z,16.52
2022-08-06T02:59:56.725Z,16.50
2022-08-06T03:00:57.135Z,16.48
2022-08-06T03:01:57.399Z,16.48
2022-08-06T03:02:57.635Z,16.48
2022-08-06T03:03:59.715Z,16.45
2022-08-06T03:04:58.345Z,16.45
2022-08-06T03:05:58.540Z,16.43
2022-08-06T03:06:58.865Z,16.41
2022-08-06T03:07:59.121Z,16.41
2022-08-06T03:08:59.380Z,16.39
2022-08-06T03:09:59.620Z,16.41
2022-08-06T03:10:59.883Z,16.38
2022-08-06T03:12:00.120Z,16.38
2022-08-06T03:13:03.751Z,16.35
2022-08-06T03:14:00.671Z,16.34
2022-08-06T03:15:07.586Z,16.34
2022-08-06T03:16:02.257Z,16.33
2022-08-06T03:17:01.553Z,16.33
2022-08-06T03:18:03.753Z,16.35
2022-08-06T03:19:55.584Z,16.34
2022-08-06T03:20:03.416Z,16.35
2022-08-06T03:21:02.731Z,16.34
2022-08-06T03:22:03.053Z,16.34
2022-08-06T03:23:03.316Z,16.31
2022-08-06T03:24:03.622Z,16.30
2022-08-06T03:25:04.003Z,16.30
2022-08-06T03:26:04.982Z,16.30
2022-08-06T03:27:04.491Z,16.28
2022-08-06T03:28:04.742Z,16.30
2022-08-06T03:29:04.975Z,16.28
2022-08-06T03:30:05.238Z,16.28
2022-08-06T03:31:05.478Z,16.28
2022-08-06T03:32:24.807Z,16.27
2022-08-06T03:33:28.689Z,16.25
2022-08-06T03:34:07.337Z,16.25
2022-08-06T03:35:06.676Z,16.25
2022-08-06T03:36:07.029Z,16.25
2022-08-06T03:37:08.248Z,16.23
2022-08-06T03:38:07.516Z,16.24
2022-08-06T03:39:07.845Z,16.20
2022-08-06T03:40:08.106Z,16.17
2022-08-06T03:41:08.425Z,16.15
2022-08-06T03:42:09.492Z,16.15
2022-08-06T03:43:09.105Z,16.14
2022-08-06T03:44:11.757Z,16.15
2022-08-06T03:45:09.546Z,16.15
2022-08-06T03:46:10.866Z,16.15
2022-08-06T03:47:10.170Z,16.14
2022-08-06T03:48:10.460Z,16.17
2022-08-06T03:49:10.773Z,16.17
2022-08-06T03:50:11.089Z,16.17
2022-08-06T03:51:11.365Z,16.15
2022-08-06T03:52:14.670Z,16.17
2022-08-06T03:53:11.872Z,16.17
2022-08-06T03:54:13.863Z,16.20
2022-08-06T03:55:15.336Z,16.20
2022-08-06T03:56:14.697Z,16.20
2022-08-06T03:57:13.005Z,16.21
2022-08-06T03:58:13.235Z,16.23
2022-08-06T03:59:14.597Z,16.21
2022-08-06T04:00:13.885Z,16.23
2022-08-06T04:01:14.172Z,16.20
2022-08-06T04:02:24.705Z,16.20
2022-08-06T04:03:15.766Z,16.20
2022-08-06T04:04:26.413Z,16.21
2022-08-06T04:05:16.322Z,16.24
2022-08-06T04:06:16.515Z,16.27
2022-08-06T04:07:17.373Z,16.27
2022-08-06T04:08:17.137Z,16.28
2022-08-06T04:09:17.410Z,16.30
2022-08-06T04:10:22.603Z,16.34
2022-08-06T04:12:14.221Z,16.34
2022-08-06T04:12:54.720Z,16.35
2022-08-06T04:14:02.913Z,16.38
2022-08-06T04:14:18.759Z,16.38
2022-08-06T04:15:19.009Z,16.38
2022-08-06T04:16:29.573Z,16.38
2022-08-06T04:17:19.695Z,16.35
2022-08-06T04:18:18.992Z,16.33
2022-08-06T04:19:19.243Z,16.34
2022-08-06T04:20:41.097Z,16.33
2022-08-06T04:22:57.179Z,16.33
2022-08-06T04:23:04.977Z,16.33
2022-08-06T04:23:34.928Z,16.33
2022-08-06T04:24:21.715Z,16.38
2022-08-06T04:25:20.946Z,16.38
2022-08-06T04:26:21.274Z,16.38
2022-08-06T04:27:21.527Z,16.39
2022-08-06T04:28:21.834Z,16.39
2022-08-06T04:29:23.447Z,16.42
2022-08-06T04:30:22.413Z,16.45
2022-08-06T04:32:02.838Z,16.46
2022-08-06T04:32:29.358Z,16.48
2022-08-06T04:33:34.586Z,16.50
2022-08-06T04:34:28.461Z,16.50
2022-08-06T04:36:07.648Z,16.52
2022-08-06T04:36:25.587Z,16.52
2022-08-06T04:37:24.220Z,16.53
2022-08-06T04:38:27.964Z,16.52
2022-08-06T04:39:37.292Z,16.52
2022-08-06T04:40:34.461Z,16.56
2022-08-06T04:41:26.350Z,16.56
2022-08-06T04:42:25.618Z,16.58
2022-08-06T04:43:38.757Z,16.61
2022-08-06T04:44:27.063Z,16.63
2022-08-06T04:46:15.643Z,16.64
2022-08-06T04:46:27.752Z,16.68
2022-08-06T04:47:41.643Z,16.68
2022-08-06T04:48:28.281Z,16.71
2022-08-06T04:49:57.593Z,16.71
2022-08-06T04:50:28.865Z,16.71
2022-08-06T04:52:34.314Z,16.73
2022-08-06T04:52:46.441Z,16.71
2022-08-06T04:53:43.233Z,16.76
2022-08-06T04:54:30.377Z,16.78
2022-08-06T04:55:34.870Z,16.79
2022-08-06T04:56:55.776Z,16.83
2022-08-06T04:57:33.923Z,16.83
2022-08-06T04:58:32.982Z,16.85
2022-08-06T04:59:49.753Z,16.86
2022-08-06T05:00:34.227Z,16.88
2022-08-06T05:01:40.751Z,16.91
2022-08-06T05:02:32.376Z,16.89
2022-08-06T05:04:05.709Z,16.89
2022-08-06T05:04:32.987Z,16.89
2022-08-06T05:05:31.997Z,16.89
2022-08-06T05:06:32.259Z,16.89
2022-08-06T05:07:51.464Z,16.91
2022-08-06T05:08:33.822Z,16.85
2022-08-06T05:09:42.365Z,16.79
2022-08-06T05:10:34.369Z,16.78
2022-08-06T05:11:33.941Z,16.81
2022-08-06T05:12:34.158Z,16.89
2022-08-06T05:13:39.256Z,17.00
2022-08-06T05:14:35.629Z,17.01
2022-08-06T05:15:41.429Z,17.12
2022-08-06T05:16:36.172Z,17.15
2022-08-06T05:17:35.631Z,17.26
2022-08-06T05:19:21.843Z,17.25
2022-08-06T05:19:37.095Z,17.30
2022-08-06T05:20:37.331Z,17.38
2022-08-06T05:22:05.981Z,17.55
2022-08-06T05:22:52.411Z,17.55
2022-08-06T05:23:38.129Z,17.52
2022-08-06T05:24:39.569Z,17.71
2022-08-06T05:25:38.586Z,17.71
2022-08-06T05:26:37.919Z,17.63
2022-08-06T05:27:54.777Z,17.55
2022-08-06T05:28:39.436Z,17.49
2022-08-06T05:29:38.717Z,17.46
2022-08-06T05:30:39.958Z,17.40
2022-08-06T05:31:40.583Z,17.36
2022-08-06T05:32:39.546Z,17.28
2022-08-06T05:33:41.967Z,17.23
2022-08-06T05:34:40.151Z,17.26
2022-08-06T05:36:00.515Z,17.31
2022-08-06T05:36:43.781Z,17.34
2022-08-06T05:38:01.277Z,17.52
2022-08-06T05:38:51.982Z,17.41
2022-08-06T05:39:58.987Z,17.33
2022-08-06T05:40:53.564Z,17.41
2022-08-06T05:41:42.964Z,17.44
2022-08-06T05:42:42.202Z,17.59
2022-08-06T05:43:59.824Z,17.63
2022-08-06T05:44:43.744Z,17.74
2022-08-06T05:45:43.054Z,17.82
2022-08-06T05:46:43.327Z,17.71
2022-08-06T05:47:55.510Z,17.59
2022-08-06T05:48:45.453Z,18.05
2022-08-06T05:49:58.435Z,17.99
2022-08-06T05:50:45.428Z,18.14
2022-08-06T05:51:45.604Z,18.39
2022-08-06T05:52:45.037Z,18.47
2022-08-06T05:54:03.562Z,18.70
2022-08-06T05:54:46.557Z,18.80
2022-08-06T05:55:45.858Z,19.22
2022-08-06T05:56:46.152Z,19.36
2022-08-06T05:57:53.885Z,19.32
2022-08-06T05:58:51.389Z,19.23
2022-08-06T05:59:56.742Z,19.81
2022-08-06T06:00:48.279Z,20.51
2022-08-06T06:01:48.551Z,21.09
2022-08-06T06:02:47.772Z,21.52
2022-08-06T06:03:48.859Z,21.94
2022-08-06T06:06:03.450Z,22.24
2022-08-06T06:06:06.046Z,22.45
2022-08-06T06:06:49.996Z,22.64
2022-08-06T06:08:09.170Z,22.80
2022-08-06T06:08:57.562Z,22.91
2022-08-06T06:10:03.886Z,23.09
2022-08-06T06:10:53.168Z,23.16
2022-08-06T06:12:01.646Z,23.27
2022-08-06T06:12:52.736Z,23.20
2022-08-06T06:13:59.223Z,23.10
2022-08-06T06:14:52.419Z,23.15
2022-08-06T06:15:59.046Z,23.15
2022-08-06T06:16:52.927Z,23.20
2022-08-06T06:17:52.179Z,23.22
2022-08-06T06:18:55.864Z,23.22
2022-08-06T06:19:53.383Z,23.35
2022-08-06T06:20:58.193Z,23.40
2022-08-06T06:21:54.321Z,23.60
2022-08-06T06:22:53.650Z,23.78
2022-08-06T06:23:55.147Z,23.87
2022-08-06T06:24:54.271Z,23.70
2022-08-06T06:25:54.597Z,23.65
2022-08-06T06:26:54.876Z,23.70
2022-08-06T06:27:55.153Z,23.61
2022-08-06T06:28:55.484Z,23.65
2022-08-06T06:30:06.083Z,23.65
2022-08-06T06:31:02.328Z,23.65
2022-08-06T06:32:04.067Z,23.63
2022-08-06T06:32:59.326Z,23.55
2022-08-06T06:33:56.848Z,23.42
2022-08-06T06:34:57.029Z,23.38
2022-08-06T06:35:57.319Z,23.39
2022-08-06T06:36:58.439Z,23.46
2022-08-06T06:37:57.987Z,23.54
2022-08-06T06:38:58.307Z,23.57
2022-08-06T06:39:58.848Z,23.63
2022-08-06T06:41:02.930Z,23.68
2022-08-06T06:42:00.221Z,23.61
2022-08-06T06:43:00.231Z,23.38
2022-08-06T06:43:59.690Z,22.97
2022-08-06T06:45:04.640Z,22.68
2022-08-06T06:46:33.723Z,22.60
2022-08-06T06:47:01.513Z,22.57
2022-08-06T06:48:00.875Z,22.64
2022-08-06T06:49:01.133Z,22.64
2022-08-06T06:50:04.040Z,22.47
2022-08-06T06:51:04.076Z,22.39
2022-08-06T06:52:08.324Z,22.31
2022-08-06T06:53:03.391Z,22.27
2022-08-06T06:54:06.764Z,22.03
2022-08-06T06:55:05.063Z,21.82
2022-08-06T06:56:07.187Z,21.44
2022-08-06T06:57:03.566Z,20.91
2022-08-06T06:58:04.850Z,20.28
2022-08-06T06:59:05.121Z,20.02
2022-08-06T07:00:45.614Z,19.73
2022-08-06T07:01:12.212Z,19.43
2022-08-06T07:02:11.348Z,19.18
2022-08-06T07:03:09.669Z,19.11
2022-08-06T07:04:06.534Z,19.07
2022-08-06T07:05:05.732Z,19.07
2022-08-06T07:06:09.905Z,19.02
2022-08-06T07:07:07.735Z,19.02
2022-08-06T07:08:07.623Z,19.00
2022-08-06T07:09:12.215Z,18.95
2022-08-06T07:10:11.344Z,18.88
2022-08-06T07:11:07.510Z,18.85
2022-08-06T07:12:19.564Z,18.91
2022-08-06T07:13:15.433Z,19.04
2022-08-06T07:14:09.995Z,19.13
2022-08-06T07:15:18.901Z,19.18
2022-08-06T07:16:09.788Z,19.22
2022-08-06T07:17:44.949Z,19.26
2022-08-06T07:18:24.360Z,19.31
2022-08-06T07:19:11.114Z,19.33
2022-08-06T07:20:09.869Z,19.32
2022-08-06T07:21:10.120Z,19.29
2022-08-06T07:22:10.417Z,19.23
2022-08-06T07:24:07.305Z,19.18
2022-08-06T07:24:35.744Z,19.13
2022-08-06T07:25:16.106Z,19.11
2022-08-06T07:26:12.523Z,19.06
2022-08-06T07:27:15.277Z,19.00
2022-08-06T07:28:13.153Z,19.00
2022-08-06T07:29:13.432Z,19.00
2022-08-06T07:30:14.582Z,18.99
2022-08-06T07:31:12.971Z,18.94
2022-08-06T07:32:30.873Z,18.91
2022-08-06T07:33:14.586Z,18.91
2022-08-06T07:34:16.642Z,18.91
2022-08-06T07:35:14.237Z,18.95
2022-08-06T07:36:16.663Z,19.00
2022-08-06T07:37:15.167Z,18.99
2022-08-06T07:38:15.127Z,19.02
2022-08-06T07:39:15.991Z,19.02
2022-08-06T07:40:15.721Z,18.98
2022-08-06T07:41:15.898Z,18.98
2022-08-06T07:42:17.255Z,18.99
2022-08-06T07:43:23.857Z,19.06
2022-08-06T07:44:22.248Z,19.10
2022-08-06T07:45:17.422Z,19.19
2022-08-06T07:46:17.345Z,19.28
2022-08-06T07:47:24.931Z,19.32
2022-08-06T07:48:18.902Z,19.39
2022-08-06T07:49:18.209Z,19.43
2022-08-06T07:50:18.457Z,19.44
2022-08-06T07:51:19.774Z,19.47
2022-08-06T07:52:20.033Z,19.40
2022-08-06T07:53:20.292Z,19.43
2022-08-06T07:54:27.967Z,19.37
2022-08-06T07:55:21.023Z,19.22
2022-08-06T07:56:20.203Z,19.16
2022-08-06T07:57:25.710Z,19.16
2022-08-06T07:58:23.317Z,19.21
2022-08-06T07:59:21.974Z,19.31
2022-08-06T08:00:21.296Z,19.47
2022-08-06T08:01:21.575Z,19.61
2022-08-06T08:02:29.653Z,19.71
2022-08-06T08:03:56.226Z,19.78
2022-08-06T08:04:34.603Z,19.87
2022-08-06T08:05:26.242Z,19.91
2022-08-06T08:06:23.940Z,19.91
2022-08-06T08:07:37.774Z,19.84
2022-08-06T08:08:24.836Z,19.81
2022-08-06T08:09:29.618Z,19.77
2022-08-06T08:10:28.854Z,19.74
2022-08-06T08:11:38.210Z,19.71
2022-08-06T08:12:35.537Z,19.71
2022-08-06T08:13:40.874Z,19.71
2022-08-06T08:14:26.373Z,19.76
2022-08-06T08:15:25.736Z,19.80
2022-08-06T08:16:28.429Z,19.84
2022-08-06T08:17:34.767Z,19.84
2022-08-06T08:18:27.591Z,19.77
2022-08-06T08:19:26.861Z,19.80
2022-08-06T08:20:27.813Z,19.76
2022-08-06T08:21:28.375Z,19.77
2022-08-06T08:22:27.612Z,19.77
2022-08-06T08:23:33.388Z,19.78
2022-08-06T08:24:29.207Z,19.74
2022-08-06T08:25:42.153Z,19.69
2022-08-06T08:26:48.887Z,19.59
2022-08-06T08:27:29.937Z,19.48
2022-08-06T08:28:29.589Z,19.48
2022-08-06T08:29:34.594Z,19.50
2022-08-06T08:30:30.788Z,19.56
2022-08-06T08:31:30.079Z,19.51
2022-08-06T08:32:30.351Z,19.50
2022-08-06T08:33:30.651Z,19.46
2022-08-06T08:34:30.961Z,19.44
2022-08-06T08:35:31.142Z,19.46
2022-08-06T08:36:32.489Z,19.51
2022-08-06T08:37:32.846Z,19.54
2022-08-06T08:38:32.041Z,19.54
2022-08-06T08:39:33.651Z,19.65
2022-08-06T08:40:32.601Z,19.73
2022-08-06T08:41:47.992Z,19.81
2022-08-06T08:42:36.366Z,19.74
2022-08-06T08:43:58.752Z,19.65
2022-08-06T08:44:34.691Z,19.59
2022-08-06T08:45:34.118Z,19.56
2022-08-06T08:46:37.802Z,19.55
2022-08-06T08:47:39.025Z,19.58
2022-08-06T08:48:35.937Z,19.51
2022-08-06T08:49:35.226Z,19.50
2022-08-06T08:50:35.540Z,19.56
2022-08-06T08:51:36.551Z,19.63
2022-08-06T08:52:37.309Z,19.76
2022-08-06T08:53:45.091Z,19.88
2022-08-06T08:54:37.769Z,19.96
2022-08-06T08:57:06.649Z,19.99
2022-08-06T08:57:07.018Z,19.95
2022-08-06T08:58:42.239Z,19.92
2022-08-06T08:59:56.214Z,19.92
2022-08-06T08:59:59.252Z,19.92
2022-08-06T09:00:40.588Z,19.94
2022-08-06T09:01:52.605Z,19.98
2022-08-06T09:02:40.167Z,20.03
2022-08-06T09:03:47.165Z,20.11
2022-08-06T09:04:40.555Z,20.18
2022-08-06T09:05:47.408Z,20.31
2022-08-06T09:06:41.186Z,20.39
2022-08-06T09:07:40.664Z,20.50
2022-08-06T09:09:01.498Z,20.54
2022-08-06T09:09:47.254Z,20.51
2022-08-06T09:10:42.315Z,20.39
2022-08-06T09:12:04.868Z,20.33
2022-08-06T09:12:45.203Z,20.20
2022-08-06T09:13:51.447Z,20.05
2022-08-06T09:14:43.556Z,19.99
2022-08-06T09:15:42.869Z,19.99
2022-08-06T09:16:50.320Z,20.03
2022-08-06T09:18:26.660Z,20.11
2022-08-06T09:18:44.588Z,20.18
2022-08-06T09:19:43.827Z,20.23
2022-08-06T09:20:45.996Z,20.23
2022-08-06T09:21:44.401Z,20.28
2022-08-06T09:22:45.742Z,20.23
2022-08-06T09:23:49.534Z,20.21
2022-08-06T09:24:46.341Z,20.24
2022-08-06T09:25:51.511Z,20.28
2022-08-06T09:26:54.412Z,20.35
2022-08-06T09:27:48.781Z,20.42
2022-08-06T09:28:46.592Z,20.59
2022-08-06T09:30:00.827Z,20.77
2022-08-06T09:30:48.137Z,20.89
2022-08-06T09:31:47.457Z,20.98
2022-08-06T09:32:56.808Z,20.98
2022-08-06T09:34:29.180Z,21.06
2022-08-06T09:34:50.343Z,21.07
2022-08-06T09:35:48.556Z,21.06
2022-08-06T09:36:49.256Z,21.13
2022-08-06T09:37:54.398Z,21.16
2022-08-06T09:38:50.570Z,21.21
2022-08-06T09:40:05.507Z,21.21
2022-08-06T09:40:51.141Z,21.17
2022-08-06T09:41:50.470Z,21.14
2022-08-06T09:42:51.311Z,21.10
2022-08-06T09:44:03.116Z,20.87
2022-08-06T09:44:52.319Z,20.61
2022-08-06T09:45:51.641Z,20.52
2022-08-06T09:46:52.991Z,20.51
2022-08-06T09:47:58.334Z,20.55
2022-08-06T09:49:18.800Z,20.54
2022-08-06T09:50:00.125Z,20.54
2022-08-06T09:50:54.210Z,20.52
2022-08-06T09:51:53.591Z,20.48
2022-08-06T09:52:55.794Z,20.52
2022-08-06T09:54:08.964Z,20.54
2022-08-06T09:54:55.526Z,20.59
2022-08-06T09:55:58.068Z,20.59
2022-08-06T09:56:55.108Z,20.62
2022-08-06T09:57:55.367Z,20.73
2022-08-06T09:58:55.613Z,20.79
2022-08-06T09:59:56.078Z,20.85
2022-08-06T10:00:56.207Z,20.88
2022-08-06T10:01:56.418Z,20.85
2022-08-06T10:02:56.779Z,20.84
2022-08-06T10:04:04.858Z,20.89
2022-08-06T10:04:58.443Z,20.98
2022-08-06T10:05:57.696Z,21.09
2022-08-06T10:06:57.930Z,21.16
2022-08-06T10:07:58.210Z,21.25
2022-08-06T10:08:58.472Z,21.34
2022-08-06T10:09:58.782Z,21.46
2022-08-06T10:11:02.785Z,21.59
2022-08-06T10:12:00.343Z,21.65
2022-08-06T10:12:59.689Z,21.72
2022-08-06T10:13:59.995Z,21.84
2022-08-06T10:15:01.163Z,21.92
2022-08-06T10:16:04.265Z,21.92
2022-08-06T10:17:00.788Z,21.94
2022-08-06T10:18:00.971Z,21.91
2022-08-06T10:19:18.662Z,21.92
2022-08-06T10:20:02.532Z,21.91
2022-08-06T10:21:01.952Z,21.84
2022-08-06T10:22:03.258Z,21.75
2022-08-06T10:23:02.459Z,21.65
2022-08-06T10:24:02.740Z,21.54
2022-08-06T10:25:12.401Z,21.52
2022-08-06T10:26:04.253Z,21.40
2022-08-06T10:27:03.571Z,21.31
2022-08-06T10:28:03.919Z,21.21
2022-08-06T10:29:04.163Z,21.14
2022-08-06T10:30:04.452Z,21.12
2022-08-06T10:31:04.694Z,21.12
2022-08-06T10:32:05.126Z,21.14
2022-08-06T10:33:08.566Z,21.12
2022-08-06T10:34:06.537Z,21.12
2022-08-06T10:35:14.608Z,21.12
2022-08-06T10:36:08.685Z,21.07
2022-08-06T10:37:07.877Z,21.04
2022-08-06T10:38:14.575Z,21.04
2022-08-06T10:40:07.082Z,21.12
2022-08-06T10:40:11.250Z,21.17
2022-08-06T10:41:07.661Z,21.14
2022-08-06T10:42:21.554Z,21.19
2022-08-06T10:43:12.560Z,21.29
2022-08-06T10:44:08.334Z,21.42
2022-08-06T10:45:13.123Z,21.47
2022-08-06T10:46:11.614Z,21.49
2022-08-06T10:47:09.268Z,21.54
2022-08-06T10:48:59.449Z,21.54
2022-08-06T10:50:25.369Z,21.46
2022-08-06T10:50:32.216Z,21.38
2022-08-06T10:51:11.285Z,21.32
2022-08-06T10:52:10.681Z,21.19
2022-08-06T10:53:11.043Z,21.06
2022-08-06T10:54:19.896Z,20.94
2022-08-06T10:55:12.582Z,20.87
2022-08-06T10:56:12.280Z,20.87
2022-08-06T10:57:12.147Z,20.94
2022-08-06T10:58:13.547Z,21.01
2022-08-06T10:59:15.493Z,21.12
2022-08-06T11:00:13.945Z,21.19
2022-08-06T11:01:14.342Z,21.28
2022-08-06T11:02:17.197Z,21.31
2022-08-06T11:03:14.060Z,21.25
2022-08-06T11:04:14.534Z,21.22
2022-08-06T11:05:21.036Z,21.16
2022-08-06T11:06:15.719Z,21.12
2022-08-06T11:08:09.327Z,21.06
2022-08-06T11:08:21.772Z,20.97
2022-08-06T11:09:16.699Z,20.80
2022-08-06T11:10:16.020Z,20.72
2022-08-06T11:11:19.833Z,20.66
2022-08-06T11:12:17.500Z,20.64
2022-08-06T11:13:16.811Z,20.64
2022-08-06T11:14:19.166Z,20.66
2022-08-06T11:15:17.442Z,20.67
2022-08-06T11:16:17.701Z,20.79
2022-08-06T11:17:19.032Z,20.89
2022-08-06T11:18:22.092Z,20.98
2022-08-06T11:19:19.592Z,20.97
2022-08-06T11:20:18.983Z,20.99
2022-08-06T11:21:19.225Z,21.09
2022-08-06T11:22:19.482Z,21.17
2022-08-06T11:23:52.361Z,21.27
2022-08-06T11:24:21.113Z,21.35
2022-08-06T11:25:26.489Z,21.42
2022-08-06T11:26:21.617Z,21.42
2022-08-06T11:27:21.948Z,21.38
2022-08-06T11:28:21.164Z,21.32
2022-08-06T11:29:21.503Z,21.31
2022-08-06T11:30:26.519Z,21.32
2022-08-06T11:31:22.051Z,21.27
2022-08-06T11:32:22.420Z,21.19
2022-08-06T11:33:23.310Z,21.10
2022-08-06T11:34:27.201Z,21.04
2022-08-06T11:35:24.146Z,21.01
2022-08-06T11:36:23.414Z,20.99
2022-08-06T11:38:01.123Z,20.99
2022-08-06T11:38:26.509Z,20.99
2022-08-06T11:39:25.003Z,21.04
2022-08-06T11:40:25.589Z,21.12
2022-08-06T11:41:54.641Z,21.14
2022-08-06T11:42:26.382Z,21.17
2022-08-06T11:43:26.894Z,21.19
2022-08-06T11:44:27.311Z,21.19
2022-08-06T11:46:20.993Z,21.22
2022-08-06T11:46:31.634Z,21.22
2022-08-06T11:47:36.542Z,21.27
2022-08-06T11:48:32.963Z,21.27
2022-08-06T11:49:28.277Z,21.25
2022-08-06T11:50:27.838Z,21.21
2022-08-06T11:51:27.958Z,21.21
2022-08-06T11:52:29.172Z,21.22
2022-08-06T11:53:29.643Z,21.27
2022-08-06T11:54:29.697Z,21.35
2022-08-06T11:55:29.019Z,21.46
2022-08-06T11:56:29.300Z,21.58
2022-08-06T11:57:40.586Z,21.68
2022-08-06T11:58:30.781Z,21.77
2022-08-06T11:59:30.112Z,21.83
2022-08-06T12:00:30.394Z,21.92
2022-08-06T12:01:33.379Z,22.03
2022-08-06T12:02:31.076Z,22.07
2022-08-06T12:03:44.321Z,22.20
2022-08-06T12:04:32.495Z,22.17
2022-08-06T12:05:31.794Z,22.02
2022-08-06T12:06:32.054Z,21.83
2022-08-06T12:07:33.209Z,21.75
2022-08-06T12:08:42.600Z,21.61
2022-08-06T12:09:35.934Z,21.46
2022-08-06T12:10:34.048Z,21.34
2022-08-06T12:11:36.452Z,21.22
2022-08-06T12:12:33.570Z,21.19
2022-08-06T12:13:53.231Z,21.21
2022-08-06T12:14:35.271Z,21.22
2022-08-06T12:15:59.426Z,21.27
2022-08-06T12:16:35.922Z,21.28
2022-08-06T12:17:45.641Z,21.29
2022-08-06T12:18:36.533Z,21.29
2022-08-06T12:19:35.849Z,21.29
2022-08-06T12:20:40.465Z,21.37
2022-08-06T12:21:44.730Z,21.43
2022-08-06T12:22:37.573Z,21.40
2022-08-06T12:23:56.075Z,21.35
2022-08-06T12:25:05.549Z,21.29
2022-08-06T12:25:38.395Z,21.25
2022-08-06T12:26:37.724Z,21.22
2022-08-06T12:27:37.937Z,21.24
2022-08-06T12:28:38.593Z,21.37
2022-08-06T12:29:42.302Z,21.47
2022-08-06T12:30:38.709Z,21.56
2022-08-06T12:31:48.396Z,21.67
2022-08-06T12:32:53.898Z,21.79
2022-08-06T12:33:40.968Z,21.86
2022-08-06T12:34:39.838Z,21.94
2022-08-06T12:35:41.201Z,22.00
2022-08-06T12:36:40.497Z,22.03
2022-08-06T12:37:48.133Z,22.09
2022-08-06T12:38:42.225Z,22.14
2022-08-06T12:39:45.522Z,22.25
2022-08-06T12:40:42.777Z,22.35
2022-08-06T12:41:45.692Z,22.45
2022-08-06T12:42:53.787Z,22.51
2022-08-06T12:43:56.522Z,22.52
2022-08-06T12:44:56.294Z,22.42
2022-08-06T12:46:06.589Z,22.35
2022-08-06T12:46:44.242Z,22.21
2022-08-06T12:48:02.666Z,22.18
2022-08-06T12:48:44.915Z,22.20
2022-08-06T12:49:44.431Z,22.18
2022-08-06T12:50:44.456Z,22.10
2022-08-06T12:51:44.770Z,22.10
2022-08-06T12:52:45.985Z,22.06
2022-08-06T12:53:47.078Z,22.12
2022-08-06T12:54:45.544Z,22.21
2022-08-06T12:55:45.956Z,22.28
2022-08-06T12:56:46.052Z,22.37
2022-08-06T12:57:59.181Z,22.45